createdAt,value
2022-09-22T05:02:43.427Z,7.5
2022-09-22T05:08:27.472Z,7.6
2022-09-22T05:14:04.179Z,7.7
2022-09-22T05:19:31.777Z,7.8
2022-09-22T05:25:14.467Z,7.9
2022-09-22T05:30:55.725Z,8.1
2022-09-22T05:36:32.787Z,8.2
2022-09-22T05:42:52.158Z,8.3
2022-09-22T05:48:31.329Z,8.6
2022-09-22T05:54:08.517Z,8.8
2022-09-22T05:59:46.677Z,8.7
2022-09-22T06:05:38.088Z,9.1
2022-09-22T06:11:07.819Z,9.5
2022-09-22T06:16:46.269Z,9.8
2022-09-22T06:22:14.378Z,9.8
2022-09-22T06:27:42.190Z,9.9
2022-09-22T06:33:20.869Z,10
2022-09-22T06:38:57.801Z,10.2
2022-09-22T06:44:35.111Z,10.4
2022-09-22T06:50:13.487Z,10.5
2022-09-22T06:55:56.279Z,10.3
2022-09-22T07:02:01.272Z,10.4
2022-09-22T07:07:39.931Z,10.6
2022-09-22T07:13:22.594Z,10.4
2022-09-22T07:19:00.512Z,11.7
2022-09-22T07:24:39.338Z,12.4
2022-09-22T07:30:16.553Z,11.7
2022-09-22T07:36:00.443Z,12.1
2022-09-22T07:41:39.667Z,13.7
2022-09-22T07:47:19.700Z,12.5
2022-09-22T07:53:02.222Z,12
2022-09-22T07:58:40.648Z,13.3
2022-09-22T08:04:18.421Z,12.3
2022-09-22T08:09:44.074Z,13
2022-09-22T08:15:26.755Z,13.4
2022-09-22T08:21:04.069Z,13.8
2022-09-22T08:26:46.031Z,15.9
2022-09-22T08:32:26.194Z,14.8
2022-09-22T08:37:47.646Z,14.1
2022-09-22T08:43:28.500Z,14.4
2022-09-22T08:48:54.788Z,15.8
2022-09-22T08:54:36.521Z,16.1
2022-09-22T09:00:13.778Z,15.6
2022-09-22T09:05:52.654Z,15
2022-09-22T09:11:31.372Z,14.4
2022-09-22T09:17:11.109Z,15.5
2022-09-22T09:22:34.025Z,16.8
2022-09-22T09:29:36.466Z,16.6
2022-09-22T09:34:58.767Z,16
2022-09-22T09:40:37.517Z,16.6
2022-09-22T09:46:21.752Z,16.8
2022-09-22T09:51:59.494Z,17.4
2022-09-22T09:57:45.009Z,17.8
2022-09-22T10:03:22.920Z,17.6
2022-09-22T10:09:03.362Z,19.4
2022-09-22T10:20:07.951Z,16
2022-09-22T10:25:48.192Z,18.3
2022-09-22T10:31:11.211Z,18.6
2022-09-22T10:36:51.952Z,17.8
2022-09-22T10:42:14.534Z,18.2
2022-09-22T10:53:55.199Z,18.9
2022-09-22T10:59:32.778Z,19.8
2022-09-22T11:05:12.414Z,20.1
2022-09-22T11:10:50.532Z,19.3
2022-09-22T11:16:28.306Z,18.2
2022-09-22T11:22:06.632Z,17.4
2022-09-22T11:27:28.960Z,17.2
2022-09-22T11:33:18.786Z,15.8
2022-09-22T11:38:41.424Z,15.5
2022-09-22T11:44:19.352Z,15.4
2022-09-22T11:49:56.787Z,16.3
2022-09-22T11:55:40.096Z,16.3
2022-09-22T12:01:17.798Z,16.7
2022-09-22T12:06:45.445Z,17.2
2022-09-22T12:12:27.620Z,18.8
2022-09-22T12:17:53.006Z,19.4
2022-09-22T12:23:30.684Z,19
2022-09-22T12:29:30.895Z,18
2022-09-22T12:35:08.595Z,17.9
2022-09-22T12:40:50.329Z,18.6
2022-09-22T12:46:30.689Z,19.4
2022-09-22T12:51:54.146Z,19.1
2022-09-22T12:57:16.144Z,18.1
2022-09-22T13:02:55.145Z,19.2
2022-09-22T13:08:22.575Z,19.8
2022-09-22T13:13:29.421Z,18.6
2022-09-22T13:18:52.475Z,18.8
2022-09-22T13:24:34.171Z,18.1
2022-09-22T13:29:41.092Z,16.1
2022-09-22T13:35:27.056Z,15.5
2022-09-22T13:41:04.765Z,14.9
2022-09-22T13:46:27.597Z,15.2
2022-09-22T13:52:07.982Z,14.8
2022-09-22T13:57:50.203Z,15.1
2022-09-22T14:03:34.340Z,16.1
2022-09-22T14:09:26.436Z,16.1
2022-09-22T14:15:03.270Z,16.1
2022-09-22T14:20:41.389Z,16.9
2022-09-22T14:26:19.726Z,17.1
2022-09-22T14:31:57.717Z,18
2022-09-22T14:37:35.224Z,17.3
2022-09-22T14:43:46.396Z,18.2
2022-09-22T14:49:24.003Z,16.7
2022-09-22T14:55:02.120Z,16.9
2022-09-22T15:00:42.335Z,16.3
2022-09-22T15:06:05.649Z,15.9
2022-09-22T15:11:42.982Z,15.6
2022-09-22T15:17:06.814Z,15.4
2022-09-22T15:22:46.387Z,16.5
2022-09-22T15:28:26.116Z,15.1
2022-09-22T15:33:49.336Z,15.2
2022-09-22T15:39:26.945Z,16.1
2022-09-22T15:45:11.650Z,14.8
2022-09-22T15:50:34.714Z,14.4
2022-09-22T15:55:59.872Z,14
2022-09-22T16:01:37.723Z,14.4
2022-09-22T16:07:05.737Z,13.8
2022-09-22T16:12:27.625Z,12.6
2022-09-22T16:18:05.495Z,12.3
2022-09-22T16:23:44.068Z,12
2022-09-22T16:29:24.512Z,11.8
2022-09-22T16:35:02.352Z,11.6
2022-09-22T16:40:25.484Z,11.3
2022-09-22T16:45:16.711Z,10.9
2022-09-22T16:49:52.543Z,10.8
2022-09-22T16:55:14.897Z,10.7
2022-09-22T17:00:26.489Z,10.5
2022-09-22T17:06:09.214Z,10.3
2022-09-22T17:11:49.487Z,10.1
2022-09-22T17:17:28.339Z,9.8
2022-09-22T17:23:05.400Z,9.6
2022-09-22T17:28:45.443Z,9.5
2022-09-22T17:33:52.875Z,9.4
2022-09-22T17:39:14.396Z,9.3
2022-09-22T17:50:15.320Z,9.3
2022-09-22T17:55:37.066Z,9.5
2022-09-22T18:01:01.693Z,9.5
2022-09-22T18:06:42.640Z,9.5
2022-09-22T18:12:10.061Z,9.3
2022-09-22T18:17:37.152Z,9.6
2022-09-22T18:23:15.770Z,9.5
2022-09-22T18:28:53.657Z,9.3
2022-09-22T18:34:31.736Z,9.1
2022-09-22T18:39:59.000Z,9.1
2022-09-22T18:45:38.450Z,8.8
2022-09-22T18:51:16.007Z,8.7
2022-09-22T18:56:55.985Z,8.6
2022-09-22T19:02:35.305Z,8.6
2022-09-22T19:08:00.517Z,8.5
2022-09-22T19:13:40.539Z,8.4
2022-09-22T19:19:06.868Z,8.3
2022-09-22T19:24:49.165Z,8.3
2022-09-22T19:30:13.589Z,8.4
2022-09-22T19:35:56.081Z,8.6
2022-09-22T19:41:34.249Z,8.7
2022-09-22T19:46:57.882Z,8.7
2022-09-22T19:52:35.227Z,8.6
2022-09-22T19:57:57.830Z,8.4
2022-09-22T20:03:36.203Z,8.1
2022-09-22T20:08:57.421Z,7.9
2022-09-22T20:14:50.930Z,7.6
2022-09-22T20:20:29.633Z,7.6
2022-09-22T20:31:29.038Z,7.3
2022-09-22T20:37:10.096Z,7.4
2022-09-22T20:42:31.745Z,7.4
2022-09-22T20:48:09.092Z,7.4
2022-09-22T20:59:16.855Z,7.4
2022-09-22T21:04:55.725Z,7.4
2022-09-22T21:10:33.229Z,7.3
2022-09-22T21:16:13.604Z,7.3
2022-09-22T21:21:50.884Z,7.5
2022-09-22T21:27:29.042Z,7.6
2022-09-22T21:33:10.482Z,7.5
2022-09-22T21:38:34.171Z,7.5
2022-09-22T21:44:12.440Z,7.5
2022-09-22T21:49:50.030Z,7.4
2022-09-22T21:55:27.028Z,7.4
2022-09-22T22:06:46.976Z,7.6
2022-09-22T22:17:46.622Z,7.8
2022-09-22T22:23:07.909Z,7.8
2022-09-22T22:28:45.349Z,7.6
2022-09-22T22:34:23.694Z,7.4
2022-09-22T22:39:44.662Z,7.1
2022-09-22T22:44:51.488Z,6.8
2022-09-22T22:55:39.025Z,6.4
2022-09-22T23:01:06.780Z,6.8
2022-09-22T23:06:33.612Z,6.9
2022-09-22T23:11:54.886Z,7.1
2022-09-22T23:17:31.878Z,6.5
2022-09-22T23:22:54.337Z,6.1
2022-09-22T23:28:32.056Z,6.4
2022-09-22T23:34:09.028Z,6.2
2022-09-22T23:39:31.497Z,6.5
2022-09-22T23:45:08.003Z,6.4
2022-09-22T23:50:46.267Z,6.4
2022-09-22T23:56:09.156Z,5.9
